sensor_id;sensor_type;location;lat;lon;timestamp;P1;durP1;ratioP1;P2;durP2;ratioP2
79126;SDS011;68528;48.814;8.904;2023-09-18T00:01:21;6.47;;;2.28;;
79126;SDS011;68528;48.814;8.904;2023-09-18T00:03:47;6.35;;;2.50;;
79126;SDS011;68528;48.814;8.904;2023-09-18T00:06:12;5.10;;;2.33;;
79126;SDS011;68528;48.814;8.904;2023-09-18T00:08:38;2.13;;;1.77;;
79126;SDS011;68528;48.814;8.904;2023-09-18T00:11:04;2.42;;;2.13;;
79126;SDS011;68528;48.814;8.904;2023-09-18T00:13:32;3.67;;;2.05;;
79126;SDS011;68528;48.814;8.904;2023-09-18T00:16:00;3.88;;;1.63;;
79126;SDS011;68528;48.814;8.904;2023-09-18T00:18:26;3.40;;;1.98;;
79126;SDS011;68528;48.814;8.904;2023-09-18T00:20:51;3.72;;;1.65;;
79126;SDS011;68528;48.814;8.904;2023-09-18T00:23:17;3.08;;;1.90;;
79126;SDS011;68528;48.814;8.904;2023-09-18T00:25:42;4.85;;;2.40;;
79126;SDS011;68528;48.814;8.904;2023-09-18T00:28:08;4.28;;;2.05;;
79126;SDS011;68528;48.814;8.904;2023-09-18T00:30:33;2.45;;;1.77;;
79126;SDS011;68528;48.814;8.904;2023-09-18T00:32:59;4.78;;;2.25;;
79126;SDS011;68528;48.814;8.904;2023-09-18T00:35:25;2.40;;;1.85;;
79126;SDS011;68528;48.814;8.904;2023-09-18T00:37:50;3.45;;;2.10;;
79126;SDS011;68528;48.814;8.904;2023-09-18T00:40:16;3.07;;;1.50;;
79126;SDS011;68528;48.814;8.904;2023-09-18T00:42:41;3.33;;;2.28;;
79126;SDS011;68528;48.814;8.904;2023-09-18T00:45:07;2.30;;;1.77;;
79126;SDS011;68528;48.814;8.904;2023-09-18T00:47:33;4.65;;;1.95;;
79126;SDS011;68528;48.814;8.904;2023-09-18T00:49:59;4.93;;;2.63;;
79126;SDS011;68528;48.814;8.904;2023-09-18T00:52:24;3.65;;;2.17;;
79126;SDS011;68528;48.814;8.904;2023-09-18T00:54:51;2.28;;;1.83;;
79126;SDS011;68528;48.814;8.904;2023-09-18T00:57:17;4.60;;;2.10;;
79126;SDS011;68528;48.814;8.904;2023-09-18T00:59:42;2.63;;;1.80;;
79126;SDS011;68528;48.814;8.904;2023-09-18T01:02:08;4.05;;;1.50;;
79126;SDS011;68528;48.814;8.904;2023-09-18T01:04:34;4.70;;;2.40;;
79126;SDS011;68528;48.814;8.904;2023-09-18T01:06:59;3.13;;;2.47;;
79126;SDS011;68528;48.814;8.904;2023-09-18T01:09:29;4.53;;;2.30;;
79126;SDS011;68528;48.814;8.904;2023-09-18T01:12:11;3.65;;;2.00;;
79126;SDS011;68528;48.814;8.904;2023-09-18T01:14:50;3.17;;;2.40;;
79126;SDS011;68528;48.814;8.904;2023-09-18T01:17:38;11.77;;;2.28;;
79126;SDS011;68528;48.814;8.904;2023-09-18T01:20:05;5.72;;;2.40;;
79126;SDS011;68528;48.814;8.904;2023-09-18T01:22:31;5.57;;;2.15;;
79126;SDS011;68528;48.814;8.904;2023-09-18T01:24:57;2.97;;;2.00;;
79126;SDS011;68528;48.814;8.904;2023-09-18T01:27:24;2.53;;;1.88;;
79126;SDS011;68528;48.814;8.904;2023-09-18T01:29:49;2.25;;;1.80;;
79126;SDS011;68528;48.814;8.904;2023-09-18T01:32:16;5.93;;;2.92;;
79126;SDS011;68528;48.814;8.904;2023-09-18T01:34:42;5.63;;;2.53;;
79126;SDS011;68528;48.814;8.904;2023-09-18T01:37:13;3.45;;;1.67;;
79126;SDS011;68528;48.814;8.904;2023-09-18T01:39:42;3.47;;;1.85;;
79126;SDS011;68528;48.814;8.904;2023-09-18T01:42:07;3.47;;;1.90;;
79126;SDS011;68528;48.814;8.904;2023-09-18T01:44:37;5.22;;;1.92;;
79126;SDS011;68528;48.814;8.904;2023-09-18T01:47:03;3.85;;;1.63;;
79126;SDS011;68528;48.814;8.904;2023-09-18T01:49:34;3.10;;;2.15;;
79126;SDS011;68528;48.814;8.904;2023-09-18T01:52:01;4.90;;;1.92;;
79126;SDS011;68528;48.814;8.904;2023-09-18T01:54:29;6.25;;;2.40;;
79126;SDS011;68528;48.814;8.904;2023-09-18T01:56:57;6.97;;;2.50;;
79126;SDS011;68528;48.814;8.904;2023-09-18T01:59:24;6.40;;;2.58;;
79126;SDS011;68528;48.814;8.904;2023-09-18T02:01:51;3.97;;;2.10;;
79126;SDS011;68528;48.814;8.904;2023-09-18T02:04:18;7.53;;;3.05;;
79126;SDS011;68528;48.814;8.904;2023-09-18T02:07:04;5.53;;;2.28;;
79126;SDS011;68528;48.814;8.904;2023-09-18T02:09:30;11.48;;;3.17;;
79126;SDS011;68528;48.814;8.904;2023-09-18T02:11:56;10.48;;;2.67;;
79126;SDS011;68528;48.814;8.904;2023-09-18T02:14:21;6.00;;;2.50;;
79126;SDS011;68528;48.814;8.904;2023-09-18T02:16:46;5.05;;;2.22;;
79126;SDS011;68528;48.814;8.904;2023-09-18T02:19:12;9.13;;;2.85;;
79126;SDS011;68528;48.814;8.904;2023-09-18T02:21:39;6.13;;;2.67;;
79126;SDS011;68528;48.814;8.904;2023-09-18T02:24:08;6.35;;;2.72;;
79126;SDS011;68528;48.814;8.904;2023-09-18T02:26:58;6.07;;;2.17;;
79126;SDS011;68528;48.814;8.904;2023-09-18T02:29:23;6.90;;;2.25;;
79126;SDS011;68528;48.814;8.904;2023-09-18T02:31:49;7.27;;;2.57;;
79126;SDS011;68528;48.814;8.904;2023-09-18T02:34:14;6.82;;;2.72;;
79126;SDS011;68528;48.814;8.904;2023-09-18T02:36:39;8.60;;;2.45;;
79126;SDS011;68528;48.814;8.904;2023-09-18T02:39:05;7.90;;;2.60;;
79126;SDS011;68528;48.814;8.904;2023-09-18T02:41:31;9.63;;;2.42;;
79126;SDS011;68528;48.814;8.904;2023-09-18T02:43:56;4.38;;;2.55;;
79126;SDS011;68528;48.814;8.904;2023-09-18T02:46:22;8.95;;;2.63;;
79126;SDS011;68528;48.814;8.904;2023-09-18T02:48:47;7.95;;;3.13;;
79126;SDS011;68528;48.814;8.904;2023-09-18T02:51:12;4.07;;;1.85;;
79126;SDS011;68528;48.814;8.904;2023-09-18T02:53:38;6.18;;;2.55;;
79126;SDS011;68528;48.814;8.904;2023-09-18T02:56:03;5.90;;;2.13;;
79126;SDS011;68528;48.814;8.904;2023-09-18T02:58:29;7.90;;;3.63;;
79126;SDS011;68528;48.814;8.904;2023-09-18T03:00:56;7.70;;;3.35;;
79126;SDS011;68528;48.814;8.904;2023-09-18T03:03:27;4.03;;;2.22;;
79126;SDS011;68528;48.814;8.904;2023-09-18T03:05:59;7.10;;;2.58;;
79126;SDS011;68528;48.814;8.904;2023-09-18T03:08:27;4.50;;;2.15;;
79126;SDS011;68528;48.814;8.904;2023-09-18T03:10:53;5.20;;;2.40;;
79126;SDS011;68528;48.814;8.904;2023-09-18T03:13:19;4.82;;;2.33;;
79126;SDS011;68528;48.814;8.904;2023-09-18T03:15:45;4.00;;;2.13;;
79126;SDS011;68528;48.814;8.904;2023-09-18T03:18:12;4.32;;;2.15;;
79126;SDS011;68528;48.814;8.904;2023-09-18T03:20:37;7.55;;;2.92;;
79126;SDS011;68528;48.814;8.904;2023-09-18T03:23:03;6.93;;;2.30;;
79126;SDS011;68528;48.814;8.904;2023-09-18T03:25:29;4.88;;;2.22;;
79126;SDS011;68528;48.814;8.904;2023-09-18T03:27:56;6.30;;;2.65;;
79126;SDS011;68528;48.814;8.904;2023-09-18T03:30:23;6.22;;;2.88;;
79126;SDS011;68528;48.814;8.904;2023-09-18T03:32:50;6.45;;;2.63;;
79126;SDS011;68528;48.814;8.904;2023-09-18T03:35:16;4.25;;;2.33;;
79126;SDS011;68528;48.814;8.904;2023-09-18T03:40:32;4.03;;;2.47;;
79126;SDS011;68528;48.814;8.904;2023-09-18T03:42:57;4.13;;;2.50;;
79126;SDS011;68528;48.814;8.904;2023-09-18T03:45:22;8.50;;;3.08;;
79126;SDS011;68528;48.814;8.904;2023-09-18T03:47:49;7.30;;;2.90;;
79126;SDS011;68528;48.814;8.904;2023-09-18T03:50:15;7.20;;;2.47;;
79126;SDS011;68528;48.814;8.904;2023-09-18T03:52:40;5.40;;;2.10;;
79126;SDS011;68528;48.814;8.904;2023-09-18T03:55:08;3.95;;;1.88;;
79126;SDS011;68528;48.814;8.904;2023-09-18T03:57:34;5.15;;;2.30;;
79126;SDS011;68528;48.814;8.904;2023-09-18T04:00:02;10.07;;;2.58;;
79126;SDS011;68528;48.814;8.904;2023-09-18T04:02:33;6.82;;;2.05;;
79126;SDS011;68528;48.814;8.904;2023-09-18T04:04:59;6.55;;;2.35;;
79126;SDS011;68528;48.814;8.904;2023-09-18T04:07:24;5.97;;;2.25;;
79126;SDS011;68528;48.814;8.904;2023-09-18T04:09:49;5.20;;;2.57;;
79126;SDS011;68528;48.814;8.904;2023-09-18T04:12:15;8.82;;;2.35;;
79126;SDS011;68528;48.814;8.904;2023-09-18T04:14:40;9.75;;;2.35;;
79126;SDS011;68528;48.814;8.904;2023-09-18T04:17:07;12.80;;;2.30;;
79126;SDS011;68528;48.814;8.904;2023-09-18T04:19:33;4.90;;;2.03;;
79126;SDS011;68528;48.814;8.904;2023-09-18T04:21:58;7.13;;;2.30;;
79126;SDS011;68528;48.814;8.904;2023-09-18T04:24:24;10.57;;;1.95;;
79126;SDS011;68528;48.814;8.904;2023-09-18T04:26:51;6.40;;;1.75;;
79126;SDS011;68528;48.814;8.904;2023-09-18T04:29:17;3.80;;;1.55;;
79126;SDS011;68528;48.814;8.904;2023-09-18T04:31:44;6.07;;;2.00;;
79126;SDS011;68528;48.814;8.904;2023-09-18T04:34:10;4.55;;;1.75;;
79126;SDS011;68528;48.814;8.904;2023-09-18T04:36:35;5.45;;;1.90;;
79126;SDS011;68528;48.814;8.904;2023-09-18T04:39:03;9.55;;;1.60;;
79126;SDS011;68528;48.814;8.904;2023-09-18T04:41:31;6.93;;;2.10;;
79126;SDS011;68528;48.814;8.904;2023-09-18T04:43:56;6.07;;;1.80;;
79126;SDS011;68528;48.814;8.904;2023-09-18T04:46:22;4.20;;;1.45;;
79126;SDS011;68528;48.814;8.904;2023-09-18T04:48:49;7.38;;;1.40;;
79126;SDS011;68528;48.814;8.904;2023-09-18T04:51:14;3.40;;;1.67;;
79126;SDS011;68528;48.814;8.904;2023-09-18T04:53:41;5.00;;;1.38;;
79126;SDS011;68528;48.814;8.904;2023-09-18T04:56:07;7.75;;;2.22;;
79126;SDS011;68528;48.814;8.904;2023-09-18T04:58:35;6.20;;;1.45;;
79126;SDS011;68528;48.814;8.904;2023-09-18T05:01:02;7.78;;;1.80;;
79126;SDS011;68528;48.814;8.904;2023-09-18T05:03:29;4.60;;;1.70;;
79126;SDS011;68528;48.814;8.904;2023-09-18T05:05:55;5.28;;;1.65;;
79126;SDS011;68528;48.814;8.904;2023-09-18T05:08:20;5.72;;;1.55;;
79126;SDS011;68528;48.814;8.904;2023-09-18T05:10:47;5.88;;;1.73;;
79126;SDS011;68528;48.814;8.904;2023-09-18T05:13:12;6.88;;;1.67;;
79126;SDS011;68528;48.814;8.904;2023-09-18T05:15:38;5.20;;;1.50;;
79126;SDS011;68528;48.814;8.904;2023-09-18T05:18:03;4.68;;;1.70;;
79126;SDS011;68528;48.814;8.904;2023-09-18T05:20:29;9.82;;;1.65;;
79126;SDS011;68528;48.814;8.904;2023-09-18T05:22:56;5.25;;;1.80;;
79126;SDS011;68528;48.814;8.904;2023-09-18T05:25:23;3.65;;;1.50;;
79126;SDS011;68528;48.814;8.904;2023-09-18T05:27:54;4.05;;;1.42;;
79126;SDS011;68528;48.814;8.904;2023-09-18T05:30:29;5.38;;;1.50;;
79126;SDS011;68528;48.814;8.904;2023-09-18T05:33:03;8.40;;;1.60;;
79126;SDS011;68528;48.814;8.904;2023-09-18T05:35:30;3.92;;;1.90;;
79126;SDS011;68528;48.814;8.904;2023-09-18T05:38:05;4.95;;;1.48;;
79126;SDS011;68528;48.814;8.904;2023-09-18T05:40:31;3.92;;;1.80;;
79126;SDS011;68528;48.814;8.904;2023-09-18T05:43:07;7.93;;;3.20;;
79126;SDS011;68528;48.814;8.904;2023-09-18T05:45:33;7.07;;;2.15;;
79126;SDS011;68528;48.814;8.904;2023-09-18T05:47:59;4.28;;;1.85;;
79126;SDS011;68528;48.814;8.904;2023-09-18T05:50:31;6.85;;;2.00;;
79126;SDS011;68528;48.814;8.904;2023-09-18T05:52:57;8.98;;;2.20;;
79126;SDS011;68528;48.814;8.904;2023-09-18T05:55:29;8.70;;;1.80;;
79126;SDS011;68528;48.814;8.904;2023-09-18T05:57:55;3.63;;;1.80;;
79126;SDS011;68528;48.814;8.904;2023-09-18T06:00:21;3.30;;;1.50;;
79126;SDS011;68528;48.814;8.904;2023-09-18T06:02:48;5.95;;;2.00;;
79126;SDS011;68528;48.814;8.904;2023-09-18T06:05:16;6.82;;;1.77;;
79126;SDS011;68528;48.814;8.904;2023-09-18T06:07:43;4.82;;;2.00;;
79126;SDS011;68528;48.814;8.904;2023-09-18T06:10:09;7.07;;;2.10;;
79126;SDS011;68528;48.814;8.904;2023-09-18T06:12:37;6.85;;;1.40;;
79126;SDS011;68528;48.814;8.904;2023-09-18T06:15:04;6.95;;;2.15;;
79126;SDS011;68528;48.814;8.904;2023-09-18T06:17:30;6.07;;;2.78;;
79126;SDS011;68528;48.814;8.904;2023-09-18T06:19:56;5.20;;;1.65;;
79126;SDS011;68528;48.814;8.904;2023-09-18T06:22:25;7.93;;;1.92;;
79126;SDS011;68528;48.814;8.904;2023-09-18T06:24:50;4.45;;;1.90;;
79126;SDS011;68528;48.814;8.904;2023-09-18T06:27:16;3.63;;;2.00;;
79126;SDS011;68528;48.814;8.904;2023-09-18T06:29:41;4.53;;;1.75;;
79126;SDS011;68528;48.814;8.904;2023-09-18T06:32:08;4.35;;;1.60;;
79126;SDS011;68528;48.814;8.904;2023-09-18T06:34:33;5.00;;;2.00;;
79126;SDS011;68528;48.814;8.904;2023-09-18T06:36:59;6.72;;;1.52;;
79126;SDS011;68528;48.814;8.904;2023-09-18T06:39:24;6.05;;;2.10;;
79126;SDS011;68528;48.814;8.904;2023-09-18T06:41:51;6.82;;;2.08;;
79126;SDS011;68528;48.814;8.904;2023-09-18T06:44:16;4.43;;;1.52;;
79126;SDS011;68528;48.814;8.904;2023-09-18T06:46:42;5.05;;;1.40;;
79126;SDS011;68528;48.814;8.904;2023-09-18T06:49:07;4.40;;;1.35;;
79126;SDS011;68528;48.814;8.904;2023-09-18T06:51:34;3.55;;;1.40;;
79126;SDS011;68528;48.814;8.904;2023-09-18T06:54:00;7.95;;;1.55;;
79126;SDS011;68528;48.814;8.904;2023-09-18T06:56:27;5.35;;;1.30;;
79126;SDS011;68528;48.814;8.904;2023-09-18T06:58:53;5.25;;;1.10;;
79126;SDS011;68528;48.814;8.904;2023-09-18T07:01:20;2.30;;;1.13;;
79126;SDS011;68528;48.814;8.904;2023-09-18T07:03:47;2.38;;;1.50;;
79126;SDS011;68528;48.814;8.904;2023-09-18T07:06:16;5.85;;;1.40;;
79126;SDS011;68528;48.814;8.904;2023-09-18T07:08:43;1.77;;;1.05;;
79126;SDS011;68528;48.814;8.904;2023-09-18T07:11:09;3.20;;;0.98;;
79126;SDS011;68528;48.814;8.904;2023-09-18T07:13:34;3.13;;;1.08;;
79126;SDS011;68528;48.814;8.904;2023-09-18T07:15:59;2.60;;;1.00;;
79126;SDS011;68528;48.814;8.904;2023-09-18T07:18:28;4.38;;;1.00;;
79126;SDS011;68528;48.814;8.904;2023-09-18T07:20:56;5.80;;;0.98;;
79126;SDS011;68528;48.814;8.904;2023-09-18T07:23:21;2.47;;;0.80;;
79126;SDS011;68528;48.814;8.904;2023-09-18T07:25:48;4.63;;;1.10;;
79126;SDS011;68528;48.814;8.904;2023-09-18T07:28:13;2.50;;;0.73;;
79126;SDS011;68528;48.814;8.904;2023-09-18T07:30:42;1.77;;;0.70;;
79126;SDS011;68528;48.814;8.904;2023-09-18T07:33:11;2.08;;;0.60;;
79126;SDS011;68528;48.814;8.904;2023-09-18T07:35:38;0.73;;;0.50;;
79126;SDS011;68528;48.814;8.904;2023-09-18T07:41:22;1.42;;;0.60;;
79126;SDS011;68528;48.814;8.904;2023-09-18T07:43:48;5.68;;;0.85;;
79126;SDS011;68528;48.814;8.904;2023-09-18T07:46:13;2.05;;;0.52;;
79126;SDS011;68528;48.814;8.904;2023-09-18T07:48:39;2.67;;;0.77;;
79126;SDS011;68528;48.814;8.904;2023-09-18T07:51:04;2.28;;;0.40;;
79126;SDS011;68528;48.814;8.904;2023-09-18T07:57:28;3.00;;;0.52;;
79126;SDS011;68528;48.814;8.904;2023-09-18T08:02:22;2.13;;;0.70;;
79126;SDS011;68528;48.814;8.904;2023-09-18T08:04:49;1.92;;;1.42;;
79126;SDS011;68528;48.814;8.904;2023-09-18T08:07:18;4.47;;;0.55;;
79126;SDS011;68528;48.814;8.904;2023-09-18T08:09:44;3.50;;;0.77;;
79126;SDS011;68528;48.814;8.904;2023-09-18T08:12:10;1.52;;;0.82;;
79126;SDS011;68528;48.814;8.904;2023-09-18T08:14:36;2.38;;;0.57;;
79126;SDS011;68528;48.814;8.904;2023-09-18T08:17:01;3.83;;;0.90;;
79126;SDS011;68528;48.814;8.904;2023-09-18T08:19:29;2.72;;;0.82;;
79126;SDS011;68528;48.814;8.904;2023-09-18T08:25:01;2.25;;;0.60;;
79126;SDS011;68528;48.814;8.904;2023-09-18T08:27:26;3.80;;;0.80;;
79126;SDS011;68528;48.814;8.904;2023-09-18T08:29:52;2.53;;;0.70;;
79126;SDS011;68528;48.814;8.904;2023-09-18T08:32:25;4.60;;;1.02;;
79126;SDS011;68528;48.814;8.904;2023-09-18T08:34:55;2.45;;;0.90;;
79126;SDS011;68528;48.814;8.904;2023-09-18T08:37:20;10.48;;;1.25;;
79126;SDS011;68528;48.814;8.904;2023-09-18T08:39:46;6.30;;;1.13;;
79126;SDS011;68528;48.814;8.904;2023-09-18T08:42:11;2.90;;;1.00;;
79126;SDS011;68528;48.814;8.904;2023-09-18T08:44:39;4.03;;;1.20;;
79126;SDS011;68528;48.814;8.904;2023-09-18T08:47:08;2.67;;;1.02;;
79126;SDS011;68528;48.814;8.904;2023-09-18T08:49:36;4.10;;;1.00;;
79126;SDS011;68528;48.814;8.904;2023-09-18T08:52:04;1.88;;;1.15;;
79126;SDS011;68528;48.814;8.904;2023-09-18T08:54:32;3.83;;;1.13;;
79126;SDS011;68528;48.814;8.904;2023-09-18T08:56:58;3.80;;;1.20;;
79126;SDS011;68528;48.814;8.904;2023-09-18T08:59:24;4.75;;;1.33;;
79126;SDS011;68528;48.814;8.904;2023-09-18T09:01:51;7.68;;;1.40;;
79126;SDS011;68528;48.814;8.904;2023-09-18T09:04:16;3.63;;;1.38;;
79126;SDS011;68528;48.814;8.904;2023-09-18T09:09:48;4.47;;;1.15;;
79126;SDS011;68528;48.814;8.904;2023-09-18T09:12:13;3.88;;;1.27;;
79126;SDS011;68528;48.814;8.904;2023-09-18T09:14:39;4.03;;;1.55;;
79126;SDS011;68528;48.814;8.904;2023-09-18T09:17:06;5.03;;;1.65;;
79126;SDS011;68528;48.814;8.904;2023-09-18T09:19:35;4.82;;;1.45;;
79126;SDS011;68528;48.814;8.904;2023-09-18T09:22:33;5.20;;;1.63;;
79126;SDS011;68528;48.814;8.904;2023-09-18T09:25:06;3.10;;;1.30;;
79126;SDS011;68528;48.814;8.904;2023-09-18T09:28:13;5.97;;;1.50;;
79126;SDS011;68528;48.814;8.904;2023-09-18T09:30:40;3.47;;;1.20;;
79126;SDS011;68528;48.814;8.904;2023-09-18T09:33:06;3.25;;;1.23;;
79126;SDS011;68528;48.814;8.904;2023-09-18T09:35:35;3.10;;;1.20;;
79126;SDS011;68528;48.814;8.904;2023-09-18T09:38:08;4.18;;;1.50;;
79126;SDS011;68528;48.814;8.904;2023-09-18T09:40:36;2.33;;;1.17;;
79126;SDS011;68528;48.814;8.904;2023-09-18T09:43:04;3.53;;;1.20;;
79126;SDS011;68528;48.814;8.904;2023-09-18T09:45:34;3.35;;;1.10;;
79126;SDS011;68528;48.814;8.904;2023-09-18T09:48:01;3.22;;;1.17;;
79126;SDS011;68528;48.814;8.904;2023-09-18T09:50:31;2.60;;;1.27;;
79126;SDS011;68528;48.814;8.904;2023-09-18T09:52:58;3.97;;;1.33;;
79126;SDS011;68528;48.814;8.904;2023-09-18T09:55:27;2.33;;;1.30;;
79126;SDS011;68528;48.814;8.904;2023-09-18T09:58:15;3.33;;;1.30;;
79126;SDS011;68528;48.814;8.904;2023-09-18T10:03:11;3.78;;;1.30;;
79126;SDS011;68528;48.814;8.904;2023-09-18T10:05:43;3.72;;;1.20;;
79126;SDS011;68528;48.814;8.904;2023-09-18T10:08:12;3.28;;;1.23;;
79126;SDS011;68528;48.814;8.904;2023-09-18T10:10:51;2.53;;;1.27;;
79126;SDS011;68528;48.814;8.904;2023-09-18T10:13:32;4.60;;;1.15;;
79126;SDS011;68528;48.814;8.904;2023-09-18T10:16:20;2.92;;;1.00;;
79126;SDS011;68528;48.814;8.904;2023-09-18T10:24:25;4.28;;;1.23;;
79126;SDS011;68528;48.814;8.904;2023-09-18T10:26:57;2.15;;;1.42;;
79126;SDS011;68528;48.814;8.904;2023-09-18T10:29:25;4.60;;;1.25;;
79126;SDS011;68528;48.814;8.904;2023-09-18T10:31:52;6.90;;;1.02;;
79126;SDS011;68528;48.814;8.904;2023-09-18T10:34:20;3.65;;;1.88;;
79126;SDS011;68528;48.814;8.904;2023-09-18T10:36:48;4.75;;;1.17;;
79126;SDS011;68528;48.814;8.904;2023-09-18T10:39:20;5.75;;;1.52;;
79126;SDS011;68528;48.814;8.904;2023-09-18T10:41:54;2.47;;;0.90;;
79126;SDS011;68528;48.814;8.904;2023-09-18T10:44:22;2.03;;;1.00;;
79126;SDS011;68528;48.814;8.904;2023-09-18T10:46:48;3.33;;;1.13;;
79126;SDS011;68528;48.814;8.904;2023-09-18T10:49:16;2.50;;;1.02;;
79126;SDS011;68528;48.814;8.904;2023-09-18T10:51:43;4.35;;;1.15;;
79126;SDS011;68528;48.814;8.904;2023-09-18T10:54:11;16.52;;;1.48;;
79126;SDS011;68528;48.814;8.904;2023-09-18T10:59:08;4.57;;;1.30;;
79126;SDS011;68528;48.814;8.904;2023-09-18T11:01:35;3.63;;;1.10;;
79126;SDS011;68528;48.814;8.904;2023-09-18T11:04:05;2.28;;;1.20;;
79126;SDS011;68528;48.814;8.904;2023-09-18T11:09:29;3.72;;;1.38;;
79126;SDS011;68528;48.814;8.904;2023-09-18T11:20:03;5.05;;;1.02;;
79126;SDS011;68528;48.814;8.904;2023-09-18T11:22:57;2.42;;;1.00;;
79126;SDS011;68528;48.814;8.904;2023-09-18T11:25:40;3.25;;;1.75;;
79126;SDS011;68528;48.814;8.904;2023-09-18T11:28:07;2.47;;;1.27;;
79126;SDS011;68528;48.814;8.904;2023-09-18T11:30:49;1.33;;;0.93;;
79126;SDS011;68528;48.814;8.904;2023-09-18T11:33:38;9.13;;;1.63;;
79126;SDS011;68528;48.814;8.904;2023-09-18T11:36:29;2.20;;;1.02;;
79126;SDS011;68528;48.814;8.904;2023-09-18T11:39:12;5.65;;;1.38;;
79126;SDS011;68528;48.814;8.904;2023-09-18T11:41:38;3.30;;;1.10;;
79126;SDS011;68528;48.814;8.904;2023-09-18T11:46:35;2.83;;;1.00;;
79126;SDS011;68528;48.814;8.904;2023-09-18T11:49:20;3.70;;;1.10;;
79126;SDS011;68528;48.814;8.904;2023-09-18T11:51:48;6.18;;;1.67;;
79126;SDS011;68528;48.814;8.904;2023-09-18T11:54:15;2.28;;;1.08;;
79126;SDS011;68528;48.814;8.904;2023-09-18T11:56:43;2.38;;;0.90;;
79126;SDS011;68528;48.814;8.904;2023-09-18T11:59:09;2.20;;;1.00;;
79126;SDS011;68528;48.814;8.904;2023-09-18T12:01:35;2.92;;;1.30;;
79126;SDS011;68528;48.814;8.904;2023-09-18T12:04:04;3.35;;;1.25;;
79126;SDS011;68528;48.814;8.904;2023-09-18T12:06:36;3.42;;;1.00;;
79126;SDS011;68528;48.814;8.904;2023-09-18T12:09:05;2.45;;;1.30;;
79126;SDS011;68528;48.814;8.904;2023-09-18T12:11:32;2.53;;;1.17;;
79126;SDS011;68528;48.814;8.904;2023-09-18T12:14:03;3.20;;;1.10;;
79126;SDS011;68528;48.814;8.904;2023-09-18T12:16:29;2.75;;;0.93;;
79126;SDS011;68528;48.814;8.904;2023-09-18T12:18:54;4.22;;;1.52;;
79126;SDS011;68528;48.814;8.904;2023-09-18T12:21:21;3.75;;;1.23;;
79126;SDS011;68528;48.814;8.904;2023-09-18T12:23:47;3.35;;;1.05;;
79126;SDS011;68528;48.814;8.904;2023-09-18T12:26:13;3.10;;;1.08;;
79126;SDS011;68528;48.814;8.904;2023-09-18T12:28:40;3.28;;;1.13;;
79126;SDS011;68528;48.814;8.904;2023-09-18T12:31:14;3.55;;;1.50;;
79126;SDS011;68528;48.814;8.904;2023-09-18T12:33:41;1.98;;;1.10;;
79126;SDS011;68528;48.814;8.904;2023-09-18T12:36:09;3.78;;;1.00;;
79126;SDS011;68528;48.814;8.904;2023-09-18T12:38:34;2.97;;;1.00;;
79126;SDS011;68528;48.814;8.904;2023-09-18T12:41:02;1.52;;;0.80;;
79126;SDS011;68528;48.814;8.904;2023-09-18T12:43:37;4.22;;;1.25;;
79126;SDS011;68528;48.814;8.904;2023-09-18T12:46:05;4.43;;;1.08;;
79126;SDS011;68528;48.814;8.904;2023-09-18T12:48:32;1.38;;;0.85;;
79126;SDS011;68528;48.814;8.904;2023-09-18T12:51:04;1.65;;;0.80;;
79126;SDS011;68528;48.814;8.904;2023-09-18T12:53:34;3.40;;;1.05;;
79126;SDS011;68528;48.814;8.904;2023-09-18T12:56:06;1.52;;;0.85;;
79126;SDS011;68528;48.814;8.904;2023-09-18T12:58:33;1.63;;;0.88;;
79126;SDS011;68528;48.814;8.904;2023-09-18T13:01:03;3.72;;;1.10;;
79126;SDS011;68528;48.814;8.904;2023-09-18T13:03:33;3.65;;;1.25;;
79126;SDS011;68528;48.814;8.904;2023-09-18T13:06:09;1.67;;;0.90;;
79126;SDS011;68528;48.814;8.904;2023-09-18T13:08:37;4.15;;;1.85;;
79126;SDS011;68528;48.814;8.904;2023-09-18T13:11:03;2.22;;;0.90;;
79126;SDS011;68528;48.814;8.904;2023-09-18T13:13:29;4.30;;;0.90;;
79126;SDS011;68528;48.814;8.904;2023-09-18T13:15:59;1.20;;;0.70;;
79126;SDS011;68528;48.814;8.904;2023-09-18T13:18:25;1.48;;;0.95;;
79126;SDS011;68528;48.814;8.904;2023-09-18T13:20:52;1.92;;;0.60;;
79126;SDS011;68528;48.814;8.904;2023-09-18T13:23:18;2.65;;;1.15;;
79126;SDS011;68528;48.814;8.904;2023-09-18T13:25:45;2.47;;;1.15;;
79126;SDS011;68528;48.814;8.904;2023-09-18T13:28:12;2.70;;;0.75;;
79126;SDS011;68528;48.814;8.904;2023-09-18T13:30:39;3.75;;;0.85;;
79126;SDS011;68528;48.814;8.904;2023-09-18T13:33:07;1.73;;;0.88;;
79126;SDS011;68528;48.814;8.904;2023-09-18T13:35:34;2.78;;;0.75;;
79126;SDS011;68528;48.814;8.904;2023-09-18T13:38:02;2.45;;;0.90;;
79126;SDS011;68528;48.814;8.904;2023-09-18T13:40:36;3.28;;;0.93;;
79126;SDS011;68528;48.814;8.904;2023-09-18T13:43:02;3.30;;;1.00;;
79126;SDS011;68528;48.814;8.904;2023-09-18T13:45:32;2.13;;;0.77;;
79126;SDS011;68528;48.814;8.904;2023-09-18T13:47:58;2.50;;;1.38;;
79126;SDS011;68528;48.814;8.904;2023-09-18T13:50:24;2.92;;;0.82;;
79126;SDS011;68528;48.814;8.904;2023-09-18T13:52:49;3.70;;;1.67;;
79126;SDS011;68528;48.814;8.904;2023-09-18T13:55:15;2.90;;;0.95;;
79126;SDS011;68528;48.814;8.904;2023-09-18T13:57:41;3.55;;;1.08;;
79126;SDS011;68528;48.814;8.904;2023-09-18T14:00:07;5.22;;;1.40;;
79126;SDS011;68528;48.814;8.904;2023-09-18T14:02:36;4.95;;;0.85;;
79126;SDS011;68528;48.814;8.904;2023-09-18T14:05:03;1.40;;;0.75;;
79126;SDS011;68528;48.814;8.904;2023-09-18T14:07:29;1.30;;;1.05;;
79126;SDS011;68528;48.814;8.904;2023-09-18T14:09:55;1.85;;;1.00;;
79126;SDS011;68528;48.814;8.904;2023-09-18T14:12:20;2.53;;;1.00;;
79126;SDS011;68528;48.814;8.904;2023-09-18T14:14:45;3.13;;;0.80;;
79126;SDS011;68528;48.814;8.904;2023-09-18T14:17:11;4.97;;;0.90;;
79126;SDS011;68528;48.814;8.904;2023-09-18T14:19:37;3.25;;;0.88;;
79126;SDS011;68528;48.814;8.904;2023-09-18T14:22:05;5.78;;;1.13;;
79126;SDS011;68528;48.814;8.904;2023-09-18T14:24:32;2.60;;;0.85;;
79126;SDS011;68528;48.814;8.904;2023-09-18T14:27:01;3.15;;;0.98;;
79126;SDS011;68528;48.814;8.904;2023-09-18T14:29:30;5.20;;;0.77;;
79126;SDS011;68528;48.814;8.904;2023-09-18T14:31:56;5.70;;;1.02;;
79126;SDS011;68528;48.814;8.904;2023-09-18T14:34:22;1.38;;;0.77;;
79126;SDS011;68528;48.814;8.904;2023-09-18T14:36:47;4.25;;;1.05;;
79126;SDS011;68528;48.814;8.904;2023-09-18T14:39:14;3.85;;;1.05;;
79126;SDS011;68528;48.814;8.904;2023-09-18T14:41:39;2.20;;;0.80;;
79126;SDS011;68528;48.814;8.904;2023-09-18T14:44:07;4.03;;;1.25;;
79126;SDS011;68528;48.814;8.904;2023-09-18T14:46:54;1.25;;;0.77;;
79126;SDS011;68528;48.814;8.904;2023-09-18T14:49:59;4.70;;;0.80;;
79126;SDS011;68528;48.814;8.904;2023-09-18T14:52:26;1.08;;;0.60;;
79126;SDS011;68528;48.814;8.904;2023-09-18T14:54:51;2.72;;;1.00;;
79126;SDS011;68528;48.814;8.904;2023-09-18T14:57:17;2.22;;;1.02;;
79126;SDS011;68528;48.814;8.904;2023-09-18T14:59:43;1.33;;;0.75;;
79126;SDS011;68528;48.814;8.904;2023-09-18T15:02:12;3.88;;;0.70;;
79126;SDS011;68528;48.814;8.904;2023-09-18T15:04:39;3.03;;;0.60;;
79126;SDS011;68528;48.814;8.904;2023-09-18T15:07:05;1.67;;;0.70;;
79126;SDS011;68528;48.814;8.904;2023-09-18T15:09:30;1.38;;;0.80;;
79126;SDS011;68528;48.814;8.904;2023-09-18T15:11:55;2.78;;;0.90;;
79126;SDS011;68528;48.814;8.904;2023-09-18T15:14:21;1.73;;;0.77;;
79126;SDS011;68528;48.814;8.904;2023-09-18T15:16:47;2.05;;;0.82;;
79126;SDS011;68528;48.814;8.904;2023-09-18T15:19:19;2.42;;;0.80;;
79126;SDS011;68528;48.814;8.904;2023-09-18T15:21:50;1.40;;;0.75;;
79126;SDS011;68528;48.814;8.904;2023-09-18T15:24:17;1.63;;;0.63;;
79126;SDS011;68528;48.814;8.904;2023-09-18T15:26:43;2.90;;;0.90;;
79126;SDS011;68528;48.814;8.904;2023-09-18T15:29:09;2.37;;;0.70;;
79126;SDS011;68528;48.814;8.904;2023-09-18T15:31:35;1.27;;;1.00;;
79126;SDS011;68528;48.814;8.904;2023-09-18T15:34:03;1.70;;;0.77;;
79126;SDS011;68528;48.814;8.904;2023-09-18T15:36:29;4.68;;;0.90;;